Terminal Aerodrome Forecast
Issued by NWS

Current Version | Previous Version | Text Only | Print | Product List | Glossary On
Versions: 1 2 3 4 5 6 7 8 9 10 11 12 13 14 15 16 17
234
FTUS42 TJSJ 241131
TAFISX
TAF
TISX 241131Z 2412/2512 06007KT P6SM VCSH FEW024
     FM241300 10014KT P6SM VCSH SCT025 SCT040
     FM242200 08008KT P6SM FEW030=

USA.gov is the U.S. government's official web portal to all federal, state and local government web resources and services.